Time;durP1;ratioP1;P1;durP2;ratioP2;P2;SDS_P1;SDS_P2;PMS_P1;PMS_P2;Temp;Humidity;BMP_temperature;BMP_pressure;BME280_temperature;BME280_humidity;BME280_pressure;Samples;Min_cycle;Max_cycle;Signal;HPM_P1;HPM_P2
2022/09/19 00:01:53;;;;;;;3.17;0.45;;;7.70;99.90;;;7.02;100.00;97979.66;5045930;28;20163;-70
2022/09/19 00:04:31;;;;;;;0.85;0.30;;;7.60;99.90;;;7.05;100.00;97977.88;5058444;28;20052;-70
2022/09/19 00:07:00;;;;;;;3.08;0.40;;;7.60;99.90;;;7.07;100.00;97976.13;5057326;28;20067;-70
2022/09/19 00:09:32;;;;;;;1.38;0.40;;;7.60;99.90;;;7.06;100.00;97981.31;5044902;28;20059;-70
2022/09/19 00:11:59;;;;;;;1.42;0.30;;;7.70;99.90;;;7.06;100.00;97982.16;5038815;28;20655;-70
2022/09/19 00:14:34;;;;;;;3.53;0.40;;;7.70;99.90;;;7.13;100.00;97973.38;5059520;28;20075;-70
2022/09/19 00:17:07;;;;;;;1.63;0.30;;;7.80;99.90;;;7.00;100.00;97984.88;5062535;28;20133;-70
2022/09/19 00:19:36;;;;;;;1.95;0.32;;;7.90;99.90;;;7.08;100.00;97980.38;5042337;28;20037;-73
2022/09/19 00:22:04;;;;;;;1.90;0.50;;;7.90;99.90;;;7.10;100.00;97988.09;5059194;28;20117;-74
2022/09/19 00:24:46;;;;;;;3.10;0.40;;;7.90;99.90;;;7.06;100.00;97989.91;5039784;28;20052;-73
2022/09/19 00:27:25;;;;;;;2.97;0.40;;;7.90;99.90;;;7.05;100.00;97995.94;5060145;28;20056;-74
2022/09/19 00:29:53;;;;;;;3.00;0.50;;;7.90;99.90;;;7.07;100.00;97996.78;5044502;28;20859;-74
2022/09/19 00:32:23;;;;;;;3.10;0.30;;;7.90;99.90;;;7.02;100.00;98000.31;5068006;28;20532;-74
2022/09/19 00:34:55;;;;;;;1.50;0.38;;;7.80;99.90;;;7.07;100.00;98003.66;5048993;28;20048;-73
2022/09/19 00:37:22;;;;;;;0.57;0.30;;;7.80;99.90;;;7.00;100.00;98012.41;5064046;28;20053;-73
2022/09/19 00:39:48;;;;;;;1.58;0.40;;;7.70;99.90;;;6.98;100.00;98003.84;5065590;28;20309;-74
2022/09/19 00:42:20;;;;;;;2.25;0.45;;;7.70;99.90;;;6.90;100.00;98004.84;5064980;28;20052;-73
2022/09/19 00:45:00;;;;;;;1.88;0.50;;;7.70;99.90;;;6.91;100.00;98014.31;5047230;28;20060;-74
2022/09/19 00:47:36;;;;;;;3.22;0.43;;;7.70;99.90;;;6.97;100.00;97999.56;5062071;28;20067;-73
2022/09/19 00:50:13;;;;;;;2.25;0.30;;;7.70;99.90;;;6.93;100.00;98006.53;5060885;28;20520;-73
2022/09/19 00:52:50;;;;;;;1.67;0.40;;;7.60;99.90;;;6.91;100.00;98004.00;5030731;28;20048;-73
2022/09/19 00:55:17;;;;;;;2.78;0.50;;;7.60;99.90;;;6.87;100.00;98007.50;5065085;28;20060;-73
2022/09/19 00:58:02;;;;;;;1.60;0.32;;;7.60;99.90;;;6.90;100.00;98004.84;5062142;28;20071;-73
2022/09/19 01:00:29;;;;;;;1.88;0.30;;;7.60;99.90;;;6.86;100.00;98013.53;5025248;28;20500;-73
2022/09/19 01:02:57;;;;;;;1.33;0.38;;;7.60;99.90;;;6.91;100.00;98016.03;5064717;28;20060;-73
2022/09/19 01:05:42;;;;;;;2.47;0.50;;;7.60;99.90;;;6.91;100.00;98014.31;5050489;28;20051;-73
2022/09/19 01:08:40;;;;;;;3.88;0.50;;;7.60;99.90;;;6.85;100.00;98019.59;5031957;28;20056;-73
2022/09/19 01:11:37;;;;;;;3.30;0.40;;;7.60;99.90;;;6.76;100.00;98030.09;5062525;28;20165;-73
2022/09/19 01:14:25;;;;;;;3.03;0.40;;;7.50;99.90;;;6.83;100.00;98029.09;5063836;28;20051;-74
2022/09/19 01:17:19;;;;;;;5.25;0.40;;;7.50;99.90;;;6.84;100.00;98038.56;5047323;28;20044;-73
2022/09/19 01:20:24;;;;;;;0.98;0.40;;;7.60;99.90;;;6.94;100.00;98043.53;5058486;28;20044;-73
2022/09/19 01:23:16;;;;;;;1.23;0.40;;;7.60;99.90;;;6.92;100.00;98056.44;5064124;28;20060;-73
2022/09/19 01:26:07;;;;;;;2.40;0.50;;;7.60;99.90;;;6.90;100.00;98059.06;5028864;28;20396;-74
2022/09/19 01:28:49;;;;;;;4.10;0.45;;;7.60;99.90;;;6.93;100.00;98057.28;5048190;28;20063;-73
2022/09/19 01:31:42;;;;;;;4.05;0.60;;;7.60;99.90;;;6.90;100.00;98050.47;5054291;28;20086;-74
2022/09/19 01:34:32;;;;;;;4.72;0.60;;;7.60;99.90;;;6.84;100.00;98056.63;5048432;28;20081;-73
2022/09/19 01:37:13;;;;;;;1.80;0.50;;;7.60;99.90;;;6.80;100.00;98051.53;5031724;28;20057;-73
2022/09/19 01:39:46;;;;;;;1.05;0.40;;;7.50;99.90;;;6.78;100.00;98053.31;5032397;28;20068;-74
2022/09/19 01:42:16;;;;;;;2.58;0.40;;;7.50;99.90;;;6.76;100.00;98057.63;5024949;28;20075;-74
2022/09/19 01:44:43;;;;;;;6.03;0.40;;;7.50;99.90;;;6.74;100.00;98072.28;5031670;28;20044;-73
2022/09/19 01:47:23;;;;;;;2.13;0.55;;;7.50;99.90;;;6.68;100.00;98071.53;5043776;28;20462;-74
2022/09/19 01:50:19;;;;;;;1.55;0.45;;;7.60;99.90;;;6.75;100.00;98082.59;5029696;28;20065;-74
2022/09/19 01:53:09;;;;;;;4.47;0.50;;;7.50;99.90;;;6.75;100.00;98090.34;5044626;28;20091;-74
2022/09/19 01:55:54;;;;;;;5.22;0.50;;;7.50;99.90;;;6.67;100.00;98087.88;5028252;28;20079;-73
2022/09/19 01:58:30;;;;;;;4.88;0.50;;;7.50;99.90;;;6.71;100.00;98091.25;5034914;28;20052;-73
2022/09/19 02:01:44;;;;;;;4.13;0.70;;;7.50;99.90;;;6.73;100.00;98093.78;5047268;28;20075;-74
2022/09/19 02:04:25;;;;;;;6.53;0.80;;;7.50;99.90;;;6.67;100.00;98105.09;5037470;28;20549;-73
2022/09/19 02:07:20;;;;;;;4.28;0.60;;;7.50;99.90;;;6.72;100.00;98105.00;5027133;28;20052;-74
2022/09/19 02:10:02;;;;;;;5.53;0.80;;;7.50;99.90;;;6.75;100.00;98105.81;5045667;28;20152;-73
2022/09/19 02:12:33;;;;;;;3.80;0.70;;;7.50;99.90;;;6.78;100.00;98102.31;5025706;28;20056;-73
2022/09/19 02:15:03;;;;;;;3.65;0.70;;;7.50;99.90;;;6.73;100.00;98102.41;5043015;28;20040;-73
2022/09/19 02:17:50;;;;;;;5.22;0.68;;;7.50;99.90;;;6.73;100.00;98110.16;5028195;28;20470;-73
2022/09/19 02:20:28;;;;;;;5.22;0.70;;;7.50;99.90;;;6.66;100.00;98105.97;5047600;28;20053;-73
2022/09/19 02:23:22;;;;;;;2.42;0.50;;;7.50;99.90;;;6.68;100.00;98119.69;5045745;28;20060;-74
2022/09/19 02:25:51;;;;;;;5.47;0.77;;;7.50;99.90;;;6.68;100.00;98117.09;5033357;28;20064;-74
2022/09/19 02:28:29;;;;;;;7.82;0.90;;;7.50;99.90;;;6.67;100.00;98121.41;5038713;28;20045;-73
2022/09/19 02:30:57;;;;;;;8.15;1.00;;;7.50;99.90;;;6.62;100.00;98128.41;5024774;28;20075;-73
2022/09/19 02:33:24;;;;;;;7.57;1.00;;;7.60;99.90;;;6.58;100.00;98121.59;5044660;28;20061;-74
2022/09/19 02:36:34;;;;;;;2.50;0.77;;;7.60;99.90;;;6.63;100.00;98129.25;5024056;28;20962;-73
2022/09/19 02:39:57;;;;;;;7.20;0.88;;;7.60;99.90;;;6.68;100.00;98117.97;5024001;28;20089;-73
2022/09/19 02:42:43;;;;;;;4.25;0.70;;;7.50;99.90;;;6.62;100.00;98127.56;5032598;28;20490;-73
2022/09/19 02:45:28;;;;;;;6.20;0.70;;;7.50;99.90;;;6.65;100.00;98130.06;5041502;28;20045;-73
2022/09/19 02:48:11;;;;;;;6.13;0.93;;;7.50;99.90;;;6.60;100.00;98130.16;5033345;28;20077;-74
2022/09/19 02:51:01;;;;;;;5.95;0.65;;;7.50;99.90;;;6.60;100.00;98125.00;5039638;28;20099;-73
2022/09/19 02:53:38;;;;;;;7.18;0.93;;;7.50;99.90;;;6.56;100.00;98136.22;5025635;28;20122;-74
2022/09/19 02:56:14;;;;;;;8.65;0.90;;;7.50;99.90;;;6.67;100.00;98128.31;5057044;28;20076;-75
2022/09/19 02:58:55;;;;;;;5.57;1.10;;;7.50;99.90;;;6.70;100.00;98135.97;5055286;28;20517;-75
2022/09/19 03:01:26;;;;;;;6.72;0.88;;;7.50;99.90;;;6.65;100.00;98136.06;5042629;28;20048;-74
2022/09/19 03:04:14;;;;;;;6.13;0.60;;;7.50;99.90;;;6.77;100.00;98135.00;5039127;28;20052;-75
2022/09/19 03:07:12;;;;;;;5.60;0.80;;;7.50;99.90;;;6.72;100.00;98139.38;5038431;28;20059;-75
2022/09/19 03:10:04;;;;;;;5.65;1.45;;;7.50;99.90;;;6.79;100.00;98138.41;5039216;28;20143;-75
2022/09/19 03:12:51;;;;;;;8.15;1.00;;;7.50;99.90;;;6.76;100.00;98140.19;5044384;28;20498;-74
2022/09/19 03:15:32;;;;;;;7.22;0.73;;;7.50;99.90;;;6.72;100.00;98141.13;5038087;28;20049;-74
2022/09/19 03:18:01;;;;;;;4.13;0.90;;;7.50;99.90;;;6.75;100.00;98136.78;5051989;28;20063;-75
2022/09/19 03:20:28;;;;;;;9.15;1.00;;;7.50;99.90;;;6.66;100.00;98145.53;5056100;28;20056;-74
2022/09/19 03:22:55;;;;;;;5.90;0.80;;;7.50;99.90;;;6.64;100.00;98143.84;5037856;28;20135;-74
2022/09/19 03:25:26;;;;;;;5.90;0.80;;;7.50;99.90;;;6.62;100.00;98141.28;5054720;28;20045;-74
2022/09/19 03:27:52;;;;;;;9.05;1.00;;;7.50;99.90;;;6.66;100.00;98136.91;5038859;28;20061;-74
2022/09/19 03:30:20;;;;;;;6.82;1.05;;;7.40;99.90;;;6.58;100.00;98137.06;5041169;28;20053;-74
2022/09/19 03:32:46;;;;;;;7.72;0.95;;;7.40;99.90;;;6.51;100.00;98139.78;5039824;28;20056;-75
2022/09/19 03:35:14;;;;;;;5.32;1.02;;;7.30;99.90;;;6.54;100.00;98139.72;5041861;28;20041;-75
2022/09/19 03:37:41;;;;;;;5.60;0.80;;;7.30;99.90;;;6.45;100.00;98141.59;5045568;28;20041;-75
2022/09/19 03:40:11;;;;;;;3.97;0.73;;;7.20;99.90;;;6.48;100.00;98144.13;5059135;28;20131;-75
2022/09/19 03:42:45;;;;;;;6.78;0.90;;;7.20;99.90;;;6.46;100.00;98148.44;5041200;28;20049;-75
2022/09/19 03:45:12;;;;;;;5.38;0.88;;;7.20;99.90;;;6.48;100.00;98154.44;5038031;28;20177;-75
2022/09/19 03:47:39;;;;;;;7.07;1.20;;;7.20;99.90;;;6.36;100.00;98146.03;5036805;28;20049;-75
2022/09/19 03:50:06;;;;;;;7.10;0.90;;;7.10;99.90;;;6.27;100.00;98155.66;5041561;28;20045;-75
2022/09/19 03:52:33;;;;;;;4.78;0.65;;;7.00;99.90;;;6.23;100.00;98163.44;5056144;28;20048;-75
2022/09/19 03:55:00;;;;;;;4.90;0.77;;;7.00;99.90;;;6.15;100.00;98158.41;5039787;28;20074;-75
2022/09/19 03:57:27;;;;;;;8.48;1.30;;;7.00;99.90;;;6.08;100.00;98156.78;5039753;28;20422;-75
2022/09/19 03:59:54;;;;;;;6.15;1.17;;;6.90;99.90;;;6.07;100.00;98162.84;5039419;28;20110;-75
2022/09/19 04:02:21;;;;;;;4.55;1.02;;;6.90;99.90;;;6.13;100.00;98165.28;5041319;28;20053;-75
2022/09/19 04:04:49;;;;;;;6.50;1.00;;;6.80;99.90;;;6.10;100.00;98167.94;5045409;28;20091;-75
2022/09/19 04:07:16;;;;;;;4.60;0.93;;;6.80;99.90;;;6.16;100.00;98177.28;5024077;28;20037;-75
2022/09/19 04:09:43;;;;;;;4.30;0.90;;;6.80;99.90;;;6.21;100.00;98188.41;5045639;28;20102;-75
2022/09/19 04:12:12;;;;;;;3.97;0.70;;;6.80;99.90;;;6.13;100.00;98190.22;5044580;28;20041;-75
2022/09/19 04:14:39;;;;;;;7.68;1.10;;;6.80;99.90;;;6.14;100.00;98185.06;5043165;28;20060;-75
2022/09/19 04:17:07;;;;;;;10.10;1.00;;;6.80;99.90;;;6.27;100.00;98193.44;5044428;28;20049;-74
2022/09/19 04:19:52;;;;;;;8.63;0.90;;;6.90;99.90;;;6.28;100.00;98187.44;5049016;28;20056;-74
2022/09/19 04:22:21;;;;;;;5.35;1.08;;;6.90;99.90;;;6.30;100.00;98198.56;5044748;28;20623;-75
2022/09/19 04:24:49;;;;;;;8.30;1.33;;;6.90;99.90;;;6.38;100.00;98201.84;5047981;28;20105;-75
2022/09/19 04:27:16;;;;;;;7.35;1.30;;;7.00;99.90;;;6.44;100.00;98206.09;5060153;28;20188;-75
2022/09/19 04:29:47;;;;;;;9.68;1.00;;;7.00;99.90;;;6.46;100.00;98202.59;5047668;28;20932;-75
2022/09/19 04:32:15;;;;;;;12.13;1.05;;;7.00;99.90;;;6.64;100.00;98205.75;5063396;28;20140;-75
2022/09/19 04:34:43;;;;;;;6.55;0.80;;;7.10;99.90;;;6.71;100.00;98209.94;5061134;28;20070;-75
2022/09/19 04:37:15;;;;;;;10.02;1.00;;;7.20;99.90;;;6.72;100.00;98205.63;5042245;28;21511;-75
2022/09/19 04:39:42;;;;;;;8.10;1.20;;;7.30;99.90;;;6.73;100.00;98207.31;5045008;28;20120;-75
2022/09/19 04:42:09;;;;;;;6.90;0.95;;;7.40;99.90;;;6.73;100.00;98208.19;5044637;28;20679;-75
2022/09/19 04:44:36;;;;;;;6.43;1.20;;;7.50;99.90;;;6.79;100.00;98210.63;5064072;28;20060;-75
2022/09/19 04:47:06;;;;;;;7.85;1.33;;;7.40;99.90;;;6.82;100.00;98209.72;5064142;28;20052;-75
2022/09/19 04:49:39;;;;;;;8.18;1.30;;;7.40;99.90;;;6.83;100.00;98207.13;5066114;28;20106;-75
2022/09/19 04:52:12;;;;;;;7.75;1.10;;;7.40;99.90;;;6.72;100.00;98206.47;5045942;28;20041;-75
2022/09/19 04:54:41;;;;;;;7.97;1.40;;;7.40;99.90;;;6.70;100.00;98210.81;5059205;28;20047;-75
2022/09/19 04:57:09;;;;;;;7.70;1.05;;;7.40;99.90;;;6.73;100.00;98215.06;5057195;28;20148;-75
2022/09/19 04:59:36;;;;;;;5.45;1.10;;;7.40;99.90;;;6.66;100.00;98222.03;5041156;28;20051;-75
2022/09/19 05:02:06;;;;;;;8.40;1.33;;;7.40;99.90;;;6.76;100.00;98218.44;5040308;28;20049;-74
2022/09/19 05:04:35;;;;;;;5.47;0.90;;;7.40;99.90;;;6.74;100.00;98227.94;5041051;28;20126;-75
2022/09/19 05:07:02;;;;;;;6.93;1.00;;;7.30;99.90;;;6.79;100.00;98227.84;5042124;28;20053;-75
2022/09/19 05:09:29;;;;;;;12.45;1.63;;;7.30;99.90;;;6.72;100.00;98237.44;5060890;28;20044;-75
2022/09/19 05:11:56;;;;;;;9.75;1.85;;;7.40;99.90;;;6.66;100.00;98238.41;5047964;28;20147;-75
2022/09/19 05:14:26;;;;;;;8.95;1.40;;;7.40;99.90;;;6.79;100.00;98244.19;5067936;28;20105;-75
2022/09/19 05:16:54;;;;;;;4.65;1.30;;;7.50;99.90;;;6.70;100.00;98244.34;5061747;28;20048;-75
2022/09/19 05:19:24;;;;;;;5.47;1.30;;;7.40;99.90;;;6.73;100.00;98251.16;5065071;28;20070;-75
2022/09/19 05:21:51;;;;;;;10.82;1.30;;;7.50;99.90;;;6.65;100.00;98252.16;5064612;28;20394;-75
2022/09/19 05:24:18;;;;;;;7.78;1.75;;;7.50;99.90;;;6.72;100.00;98254.66;5063559;28;20048;-75
2022/09/19 05:26:46;;;;;;;6.78;1.60;;;7.50;99.90;;;6.73;100.00;98259.78;5045939;28;20089;-75
2022/09/19 05:29:14;;;;;;;7.18;1.30;;;7.50;99.90;;;6.80;100.00;98271.72;5063821;28;20048;-75
2022/09/19 05:31:47;;;;;;;10.07;1.75;;;7.60;99.90;;;6.74;100.00;98265.78;5047252;28;20056;-75
2022/09/19 05:34:14;;;;;;;;;;;7.50;99.90;;;6.69;100.00;98269.28;5045789;28;20099;-75
2022/09/19 05:36:41;;;;;;;13.20;2.13;;;7.50;99.90;;;6.73;100.00;98280.44;5047447;28;19963;-75
2022/09/19 05:39:09;;;;;;;8.45;1.70;;;7.50;99.90;;;6.75;100.00;98281.25;5048017;28;20132;-75
2022/09/19 05:41:38;;;;;;;7.10;1.23;;;7.50;99.90;;;6.83;100.00;98278.53;5047367;28;20063;-75
2022/09/19 05:44:05;;;;;;;12.32;1.60;;;7.60;99.90;;;6.89;100.00;98289.63;5059151;28;20045;-75
2022/09/19 05:46:32;;;;;;;9.15;1.25;;;7.60;99.90;;;7.02;100.00;98287.66;5043365;28;20087;-75
2022/09/19 05:48:59;;;;;;;7.95;1.90;;;7.70;99.90;;;7.02;100.00;98281.66;5047294;28;20425;-75
2022/09/19 05:51:26;;;;;;;8.63;1.58;;;7.80;99.90;;;7.06;100.00;98291.06;5047638;28;20056;-75
2022/09/19 05:53:53;;;;;;;4.78;1.20;;;7.80;99.90;;;6.96;100.00;98289.53;5043804;28;20068;-75
2022/09/19 05:56:21;;;;;;;7.05;1.55;;;7.90;99.90;;;6.97;100.00;98289.47;5043852;28;20247;-75
2022/09/19 05:58:53;;;;;;;14.80;1.65;;;7.90;99.90;;;7.18;100.00;98295.16;5061702;28;20520;-75
2022/09/19 06:01:20;;;;;;;8.57;1.50;;;8.00;99.90;;;7.13;100.00;98303.81;5044718;28;20052;-75
2022/09/19 06:03:48;;;;;;;7.28;1.27;;;8.10;99.90;;;7.32;100.00;98303.50;5046850;28;20088;-75
2022/09/19 06:06:20;;;;;;;10.57;1.13;;;8.20;99.90;;;7.22;100.00;98310.56;5043483;28;20185;-76
2022/09/19 06:09:01;;;;;;;6.25;1.27;;;8.20;99.90;;;7.20;100.00;98311.47;5041988;28;20053;-75
2022/09/19 06:11:28;;;;;;;8.63;1.65;;;8.30;99.90;;;7.23;100.00;98301.97;5046651;28;20110;-75
2022/09/19 06:14:13;;;;;;;8.30;1.30;;;8.30;99.90;;;7.15;100.00;98301.22;5057867;28;20052;-75
2022/09/19 06:16:41;;;;;;;7.70;1.73;;;8.30;99.90;;;7.08;100.00;98310.81;5043064;28;20075;-75
2022/09/19 06:19:08;;;;;;;8.60;1.38;;;8.10;99.90;;;7.10;100.00;98311.63;5045260;28;20068;-75
2022/09/19 06:21:35;;;;;;;11.30;1.73;;;8.10;99.90;;;7.18;100.00;98315.81;5025670;28;20045;-75
2022/09/19 06:24:03;;;;;;;7.20;1.48;;;8.10;99.90;;;7.25;100.00;98315.69;5027965;28;20056;-75
2022/09/19 06:26:30;;;;;;;9.70;1.48;;;8.20;99.90;;;7.31;100.00;98327.63;5039016;28;20053;-75
2022/09/19 06:28:57;;;;;;;11.23;1.85;;;8.20;99.90;;;7.28;100.00;98323.38;5063220;28;20071;-75
2022/09/19 06:31:23;;;;;;;10.68;1.67;;;8.20;99.90;;;7.48;100.00;98327.31;5044307;28;20083;-75
2022/09/19 06:33:50;;;;;;;8.65;1.92;;;8.20;99.90;;;7.48;100.00;98332.50;5043896;28;20071;-75
2022/09/19 06:36:17;;;;;;;10.80;1.80;;;8.30;99.90;;;7.50;100.00;98333.31;5041234;28;20045;-75
2022/09/19 06:38:44;;;;;;;12.65;2.15;;;8.30;99.90;;;7.64;100.00;98338.22;5041472;28;20147;-75
2022/09/19 06:41:13;;;;;;;9.70;1.75;;;8.40;99.90;;;7.77;100.00;98339.72;5040612;28;20041;-74
2022/09/19 06:43:40;;;;;;;10.07;2.00;;;8.50;99.90;;;7.91;100.00;98342.91;5040135;28;20049;-75
2022/09/19 06:46:08;;;;;;;8.27;1.42;;;8.60;99.90;;;7.88;100.00;98342.09;5040693;28;20433;-75
2022/09/19 06:48:35;;;;;;;10.35;1.42;;;8.70;99.90;;;7.78;100.00;98335.38;5042252;28;20112;-72
2022/09/19 06:51:03;;;;;;;8.60;1.88;;;8.90;99.90;;;7.85;100.00;98339.59;5064071;28;20053;-72
2022/09/19 06:53:30;;;;;;;9.93;1.80;;;8.90;99.90;;;7.94;100.00;98335.06;5023986;28;20075;-72
2022/09/19 06:55:57;;;;;;;11.27;1.48;;;8.90;99.90;;;8.12;100.00;98344.19;5037760;28;20045;-71
2022/09/19 06:58:25;;;;;;;11.23;1.55;;;9.00;99.90;;;8.31;100.00;98330.88;5044870;28;20053;-71
2022/09/19 07:00:53;;;;;;;8.25;1.60;;;9.10;99.90;;;8.36;100.00;98327.28;5042771;28;20041;-71
2022/09/19 07:03:21;;;;;;;11.13;1.40;;;9.20;99.90;;;8.62;100.00;98327.63;5040495;28;20132;-71
2022/09/19 07:05:51;;;;;;;5.30;1.35;;;9.30;99.90;;;8.77;100.00;98325.53;5056868;28;20072;-71
2022/09/19 07:08:18;;;;;;;14.13;2.25;;;9.50;99.90;;;8.88;100.00;98317.53;5039774;28;20053;-72
2022/09/19 07:10:45;;;;;;;13.05;1.77;;;9.70;99.90;;;8.75;100.00;98316.13;5040189;28;20057;-72
2022/09/19 07:13:16;;;;;;;10.60;1.40;;;9.90;99.90;;;8.93;100.00;98300.13;5054607;28;20049;-72
2022/09/19 07:15:43;;;;;;;9.38;1.63;;;9.90;99.90;;;9.23;100.00;98302.84;5041416;28;20048;-71
2022/09/19 07:18:12;;;;;;;8.40;1.35;;;10.10;99.90;;;9.18;100.00;98300.38;5041517;28;20390;-71
2022/09/19 07:20:41;;;;;;;11.95;1.60;;;10.20;99.90;;;9.21;100.00;98296.84;5039206;28;20103;-71
2022/09/19 07:23:19;;;;;;;11.30;1.70;;;10.30;99.90;;;9.77;100.00;98281.53;5044053;28;20076;-71
2022/09/19 07:25:48;;;;;;;9.77;1.23;;;10.50;99.90;;;9.81;100.00;98277.97;5041901;28;20068;-72
2022/09/19 07:28:18;;;;;;;6.03;1.17;;;10.80;99.90;;;9.91;100.00;98267.34;5033112;28;20053;-72
2022/09/19 07:30:46;;;;;;;6.20;1.17;;;11.00;99.90;;;10.09;100.00;98265.97;5056459;28;20171;-71
2022/09/19 07:33:20;;;;;;;10.52;1.38;;;11.10;99.90;;;10.22;100.00;98249.97;5042536;28;20048;-71
2022/09/19 07:35:48;;;;;;;6.95;1.20;;;11.20;99.90;;;10.55;100.00;98244.66;5043092;28;20049;-71
2022/09/19 07:38:17;;;;;;;5.55;1.00;;;11.30;99.90;;;10.71;100.00;98228.59;5048719;28;20683;-71
2022/09/19 07:40:45;;;;;;;8.65;1.40;;;11.60;99.90;;;10.44;100.00;98210.41;5025122;28;20064;-71
2022/09/19 07:43:14;;;;;;;9.68;1.52;;;11.60;99.90;;;10.57;100.00;98209.13;5045441;28;20118;-72
2022/09/19 07:45:47;;;;;;;5.50;1.23;;;11.90;99.90;;;10.96;100.00;98205.25;5058091;28;20529;-71
2022/09/19 07:48:15;;;;;;;11.30;1.33;;;12.50;99.90;;;11.69;100.00;98207.81;5042201;28;20241;-72
2022/09/19 07:50:43;;;;;;;7.28;1.20;;;13.10;99.90;;;11.81;100.00;98184.88;5042284;28;20064;-69
2022/09/19 07:53:24;;;;;;;6.80;1.40;;;13.60;99.90;;;12.03;100.00;98177.97;5041870;28;20044;-72
2022/09/19 07:55:53;;;;;;;13.20;1.83;;;13.80;99.90;;;12.34;100.00;98166.38;5053124;28;20049;-72
2022/09/19 07:58:24;;;;;;;8.13;2.10;;;14.20;99.90;;;13.35;100.00;98136.03;5024431;28;20453;-70
2022/09/19 08:00:52;;;;;;;5.20;1.10;;;14.50;99.90;;;13.43;100.00;98124.41;5054369;28;20057;-71
2022/09/19 08:03:20;;;;;;;10.40;1.42;;;14.80;99.90;;;12.96;100.00;98113.38;5034069;28;20475;-73
2022/09/19 08:05:51;;;;;;;7.85;1.10;;;14.60;99.90;;;12.75;100.00;98106.50;5040365;28;20051;-70
2022/09/19 08:08:22;;;;;;;11.77;1.40;;;14.30;99.90;;;13.30;100.00;98092.84;5044612;28;20044;-70
2022/09/19 08:10:49;;;;;;;5.93;1.08;;;14.50;99.90;;;13.25;100.00;98087.81;5039718;28;20095;-70
2022/09/19 08:13:17;;;;;;;6.32;1.10;;;14.60;99.90;;;13.83;100.00;98084.28;5042293;28;20059;-71
2022/09/19 08:15:46;;;;;;;7.15;1.15;;;14.50;99.90;;;14.99;100.00;98072.41;5045324;28;20519;-71
2022/09/19 08:18:17;;;;;;;10.32;1.10;;;14.80;99.90;;;13.92;100.00;98051.66;5042986;28;20049;-71
2022/09/19 08:20:44;;;;;;;10.05;1.20;;;15.00;99.90;;;15.13;100.00;98050.75;5042054;28;20156;-70
2022/09/19 08:23:14;;;;;;;9.38;1.55;;;15.40;99.90;;;15.04;100.00;98043.41;5043230;28;20405;-71
2022/09/19 08:25:46;;;;;;;6.05;0.75;;;15.70;99.90;;;14.87;100.00;98033.84;5034767;28;20041;-70
2022/09/19 08:28:16;;;;;;;11.25;1.40;;;15.90;99.90;;;14.64;100.00;98027.19;5053885;28;20160;-71
2022/09/19 08:30:43;;;;;;;9.10;1.08;;;16.00;99.90;;;15.75;100.00;98024.69;5053496;28;20474;-71
2022/09/19 08:33:10;;;;;;;6.30;0.98;;;16.40;99.90;;;16.12;100.00;98017.34;5039549;28;20057;-71
2022/09/19 08:35:41;;;;;;;4.38;1.00;;;16.80;99.90;;;15.78;100.00;98014.09;5057548;28;20056;-72
2022/09/19 08:38:11;;;;;;;3.80;0.77;;;17.10;99.90;;;16.68;100.00;98013.16;5039460;28;20136;-72
2022/09/19 08:40:44;;;;;;;4.80;0.80;;;17.70;99.90;;;16.15;100.00;98017.19;5038950;28;20049;-72
2022/09/19 08:43:30;;;;;;;9.45;1.02;;;17.90;99.90;;;16.15;100.00;98011.09;5038270;28;20115;-72
2022/09/19 08:46:33;;;;;;;6.97;1.30;;;17.70;99.90;;;16.16;100.00;98015.41;5037831;28;20058;-71
2022/09/19 08:49:16;;;;;;;10.15;1.05;;;17.60;99.90;;;16.05;100.00;98005.56;5037846;28;20048;-70
2022/09/19 08:52:22;;;;;;;6.72;0.98;;;17.50;99.90;;;15.73;100.00;98020.50;5040953;28;20094;-70
2022/09/19 08:54:52;;;;;;;5.65;1.10;;;17.80;99.90;;;15.37;100.00;98025.06;5047012;28;20060;-70
2022/09/19 08:57:25;;;;;;;7.22;1.10;;;17.20;99.90;;;15.64;100.00;98032.28;5047556;28;20079;-71
2022/09/19 09:00:02;;;;;;;8.02;0.90;;;17.10;99.90;;;15.18;100.00;98021.75;5066572;28;20502;-72
2022/09/19 09:02:50;;;;;;;11.23;1.23;;;17.40;99.90;;;16.68;100.00;98021.03;5046083;28;20067;-72
2022/09/19 09:06:24;;;;;;;6.53;1.05;;;17.30;99.90;;;15.60;100.00;98030.75;5048464;28;20104;-72
2022/09/19 09:09:04;;;;;;;11.10;1.63;;;;;;;15.74;100.00;98035.28;5053665;28;20056;-72
2022/09/19 09:12:14;;;;;;;6.68;0.90;;;17.30;99.90;;;14.66;100.00;98034.94;5044859;28;20060;-72
2022/09/19 09:14:53;;;;;;;5.10;1.05;;;16.70;99.90;;;13.58;100.00;98053.28;5045707;28;20079;-71
2022/09/19 09:18:10;;;;;;;5.47;1.15;;;15.90;99.90;;;13.67;100.00;98068.50;5045497;28;20049;-70
2022/09/19 09:21:25;;;;;;;6.82;1.60;;;15.40;99.90;;;13.41;100.00;98071.47;5044409;28;20733;-71
2022/09/19 09:24:03;;;;;;;4.63;0.80;;;15.10;99.90;;;13.44;100.00;98077.41;4960599;28;20043;-71
2022/09/19 09:26:54;;;;;;;7.50;0.90;;;14.90;99.90;;;13.30;100.00;98080.63;4958657;28;20055;-71
2022/09/19 09:29:37;;;;;;;5.90;1.63;;;14.80;99.90;;;13.26;100.00;98088.63;5024918;28;20057;-71
2022/09/19 09:32:16;;;;;;;8.68;2.08;;;;;;;13.28;100.00;98082.47;5039494;28;20909;-71
2022/09/19 09:34:53;;;;;;;6.00;1.10;;;14.70;99.90;;;13.63;100.00;98084.38;5061961;28;20144;-70
2022/09/19 09:37:46;;;;;;;10.00;1.63;;;15.00;99.90;;;13.59;100.00;98079.31;5040989;28;20049;-71
2022/09/19 09:43:17;;;;;;;6.07;1.08;;;15.20;99.90;;;13.99;100.00;98072.16;5039678;28;20116;-71
2022/09/19 09:45:50;;;;;;;7.45;1.10;;;15.40;99.90;;;13.24;100.00;98074.81;5047890;28;20075;-71
2022/09/19 09:48:24;;;;;;;6.60;0.95;;;15.20;99.90;;;13.19;100.00;98073.25;5054747;28;20123;-71
2022/09/19 09:50:58;;;;;;;8.75;1.10;;;14.80;99.90;;;13.51;100.00;98067.53;5054088;28;20037;-71
2022/09/19 09:53:51;;;;;;;10.73;1.98;;;14.80;99.90;;;13.37;100.00;98066.41;5058238;28;20052;-71
2022/09/19 09:56:49;;;;;;;12.15;1.77;;;14.90;99.90;;;13.08;100.00;98070.28;5042703;28;20041;-71
2022/09/19 10:05:50;;;;;;;8.55;1.38;;;14.50;99.90;;;12.79;100.00;98082.00;5050174;28;20068;-70
2022/09/19 10:08:28;;;;;;;7.38;0.80;;;14.30;99.90;;;13.03;100.00;98081.84;5058336;28;20124;-69
2022/09/19 10:11:11;;;;;;;4.93;0.82;;;14.20;99.90;;;12.60;100.00;98073.28;5044972;28;20049;-71
2022/09/19 10:14:01;;;;;;;7.78;1.00;;;14.20;99.90;;;12.80;100.00;98077.66;5046253;28;20053;-71
2022/09/19 10:16:34;;;;;;;5.45;0.98;;;14.20;99.90;;;13.34;100.00;98078.72;5057096;28;20894;-71
2022/09/19 10:19:18;;;;;;;7.05;0.70;;;14.40;99.90;;;13.40;100.00;98073.22;5057074;28;20048;-71
2022/09/19 10:21:46;;;;;;;8.27;0.85;;;14.60;99.90;;;13.31;100.00;98077.09;5041132;28;20060;-71
2022/09/19 10:24:52;;;;;;;3.20;0.70;;;14.60;99.90;;;13.93;100.00;98069.84;5039288;28;20045;-70
2022/09/19 10:27:31;;;;;;;9.95;1.83;;;15.00;99.90;;;13.95;100.00;98064.56;5042264;28;20071;-71
2022/09/19 10:30:04;;;;;;;8.38;0.95;;;15.30;99.90;;;13.55;100.00;98069.91;5038892;28;20162;-71
2022/09/19 10:32:36;;;;;;;3.97;0.63;;;15.40;99.90;;;13.94;100.00;98070.72;5029942;28;20045;-71
2022/09/19 10:35:32;;;;;;;6.07;0.90;;;;;;;13.46;100.00;98069.50;5044148;28;20045;-71
2022/09/19 10:37:59;;;;;;;5.10;0.85;;;15.20;99.90;;;13.46;100.00;98072.97;5041097;28;20056;-71
2022/09/19 10:40:29;;;;;;;3.15;0.70;;;15.00;99.90;;;13.14;100.00;98077.00;5043767;28;20490;-71
2022/09/19 10:42:57;;;;;;;6.20;1.00;;;14.90;99.90;;;13.44;100.00;98079.16;5040920;28;20055;-71
2022/09/19 10:45:31;;;;;;;7.18;0.90;;;14.70;99.90;;;13.27;100.00;98077.28;5041381;28;20056;-71
2022/09/19 10:48:17;;;;;;;3.00;0.63;;;14.70;99.90;;;13.55;100.00;98076.91;5038813;28;20136;-71
2022/09/19 10:50:48;;;;;;;5.35;0.85;;;14.80;99.90;;;13.50;100.00;98074.50;5038079;28;20060;-71
2022/09/19 10:53:28;;;;;;;4.72;0.60;;;15.00;99.90;;;13.79;100.00;98065.28;5051238;28;20426;-71
2022/09/19 10:56:22;;;;;;;4.03;0.60;;;15.20;99.90;;;13.85;100.00;98064.16;5043301;28;20047;-70
2022/09/19 10:59:27;;;;;;;3.30;0.60;;;15.50;99.90;;;14.19;100.00;98065.13;5042280;28;20203;-70
2022/09/19 11:02:27;;;;;;;7.65;0.73;;;15.60;99.90;;;14.32;100.00;98054.91;5035232;28;20048;-70
2022/09/19 11:05:00;;;;;;;4.00;0.57;;;15.90;99.90;;;14.46;100.00;98049.00;5030512;28;20136;-71
2022/09/19 11:07:32;;;;;;;3.30;0.57;;;;;;;14.91;100.00;98043.19;5039041;28;20072;-70